createdAt,value
2018-04-12T00:01:08.400Z,101539.09
2018-04-12T00:03:37.815Z,101538.20
2018-04-12T00:06:06.340Z,101536.59
2018-04-12T00:08:35.187Z,101538.33
2018-04-12T00:11:04.486Z,101535.39
2018-04-12T00:13:33.243Z,101532.09
2018-04-12T00:16:01.671Z,101525.50
2018-04-12T00:18:30.432Z,101521.50
2018-04-12T00:21:00.126Z,101528.32
2018-04-12T00:23:28.928Z,101527.09
2018-04-12T00:25:58.178Z,101527.16
2018-04-12T00:28:26.578Z,101531.44
2018-04-12T00:30:55.032Z,101535.32
2018-04-12T00:33:23.479Z,101528.29
2018-04-12T00:35:52.058Z,101527.16
2018-04-12T00:38:20.874Z,101527.58
2018-04-12T00:40:49.314Z,101519.53
2018-04-12T00:43:18.871Z,101529.23
2018-04-12T00:45:48.750Z,101528.80
2018-04-12T00:48:17.525Z,101523.30
2018-04-12T00:50:46.224Z,101526.67
2018-04-12T00:56:10.114Z,101526.77
2018-04-12T00:58:40.035Z,101519.68
2018-04-12T01:01:09.582Z,101513.08
2018-04-12T01:03:38.418Z,101518.62
2018-04-12T01:06:08.093Z,101516.94
2018-04-12T01:08:36.440Z,101518.19
2018-04-12T01:11:06.061Z,101521.50
2018-04-12T01:13:34.836Z,101522.69
2018-04-12T01:16:03.217Z,101520.50
2018-04-12T01:18:32.747Z,101519.17
2018-04-12T01:21:01.270Z,101520.41
2018-04-12T01:23:29.687Z,101520.41
2018-04-12T01:25:59.370Z,101515.44
2018-04-12T01:28:28.755Z,101517.22
2018-04-12T01:30:58.417Z,101520.71
2018-04-12T01:36:01.440Z,101525.78
2018-04-12T01:38:30.635Z,101527.05
2018-04-12T01:40:59.143Z,101523.25
2018-04-12T01:43:28.824Z,101520.30
2018-04-12T01:45:57.168Z,101519.05
2018-04-12T01:48:25.516Z,101518.26
2018-04-12T01:50:53.959Z,101519.88
2018-04-12T01:53:22.918Z,101520.22
2018-04-12T01:55:52.120Z,101522.67
2018-04-12T01:58:20.750Z,101521.75
2018-04-12T02:00:49.317Z,101524.22
2018-04-12T02:03:18.360Z,101529.23
2018-04-12T02:05:46.715Z,101525.41
2018-04-12T02:08:15.089Z,101519.04
2018-04-12T02:10:44.216Z,101515.59
2018-04-12T02:13:13.805Z,101516.00
2018-04-12T02:15:42.714Z,101517.63
2018-04-12T02:18:11.060Z,101519.31
2018-04-12T02:20:39.761Z,101529.06
2018-04-12T02:23:08.120Z,101529.13
2018-04-12T02:25:37.707Z,101524.56
2018-04-12T02:28:06.832Z,101532.72
2018-04-12T02:30:35.529Z,101528.66
2018-04-12T02:33:04.791Z,101533.85
2018-04-12T02:35:34.699Z,101531.03
2018-04-12T02:38:03.866Z,101524.02
2018-04-12T02:40:32.226Z,101528.73
2018-04-12T02:43:01.133Z,101525.84
2018-04-12T02:45:29.696Z,101532.24
2018-04-12T02:47:59.289Z,101533.98
2018-04-12T02:50:27.998Z,101528.94
2018-04-12T02:52:58.155Z,101528.98
2018-04-12T02:55:27.167Z,101529.00
2018-04-12T02:57:55.538Z,101533.62
2018-04-12T03:00:24.414Z,101531.51
2018-04-12T03:02:52.933Z,101531.52
2018-04-12T03:05:21.817Z,101524.84
2018-04-12T03:07:51.745Z,101520.64
2018-04-12T03:10:20.101Z,101522.38
2018-04-12T03:12:48.979Z,101530.39
2018-04-12T03:15:17.435Z,101527.08
2018-04-12T03:17:46.191Z,101524.13
2018-04-12T03:20:14.860Z,101522.88
2018-04-12T03:22:44.611Z,101526.24
2018-04-12T03:25:12.967Z,101530.11
2018-04-12T03:27:41.704Z,101531.42
2018-04-12T03:30:10.802Z,101538.53
2018-04-12T03:32:39.157Z,101530.16
2018-04-12T03:35:08.523Z,101528.91
2018-04-12T03:37:36.951Z,101530.64
2018-04-12T03:40:05.635Z,101528.53
2018-04-12T03:42:39.833Z,101528.98
2018-04-12T03:45:10.238Z,101533.23
2018-04-12T03:47:38.938Z,101531.54
2018-04-12T03:50:07.379Z,101541.59
2018-04-12T03:52:35.729Z,101532.68
2018-04-12T03:55:04.490Z,101534.67
2018-04-12T03:57:33.711Z,101529.19
2018-04-12T04:00:02.069Z,101536.77
2018-04-12T04:02:31.343Z,101537.56
2018-04-12T04:05:01.048Z,101537.08
2018-04-12T04:07:29.399Z,101533.69
2018-04-12T04:09:58.080Z,101539.89
2018-04-12T04:12:26.434Z,101544.04
2018-04-12T04:18:08.013Z,101557.93
2018-04-12T04:20:48.596Z,101565.09
2018-04-12T04:23:17.435Z,101555.82
2018-04-12T04:25:45.795Z,101558.76
2018-04-12T04:28:14.340Z,101557.44
2018-04-12T04:30:42.849Z,101549.73
2018-04-12T04:33:11.245Z,101553.52
2018-04-12T04:35:40.878Z,101553.88
2018-04-12T04:38:09.227Z,101557.12
2018-04-12T04:40:37.620Z,101554.58
2018-04-12T04:43:06.301Z,101565.03
2018-04-12T04:45:34.664Z,101555.22
2018-04-12T04:48:03.087Z,101565.69
2018-04-12T04:50:31.468Z,101560.62
2018-04-12T04:52:59.821Z,101560.53
2018-04-12T04:55:28.604Z,101552.37
2018-04-12T04:57:57.391Z,101548.87
2018-04-12T05:00:26.146Z,101548.33
2018-04-12T05:02:55.367Z,101546.62
2018-04-12T05:05:24.360Z,101545.22
2018-04-12T05:07:53.158Z,101547.59
2018-04-12T05:10:21.572Z,101543.20
2018-04-12T05:12:50.167Z,101549.66
2018-04-12T05:15:18.549Z,101561.03
2018-04-12T05:17:47.444Z,101559.70
2018-04-12T05:20:17.159Z,101555.81
2018-04-12T05:22:45.870Z,101557.44
2018-04-12T05:25:14.216Z,101553.16
2018-04-12T05:27:42.588Z,101559.88
2018-04-12T05:30:11.328Z,101559.80
2018-04-12T05:32:39.844Z,101555.08
2018-04-12T05:35:08.197Z,101564.30
2018-04-12T05:37:37.170Z,101570.96
2018-04-12T05:40:05.524Z,101558.63
2018-04-12T05:42:33.868Z,101569.11
2018-04-12T05:45:03.230Z,101569.88
2018-04-12T05:47:31.594Z,101566.41
2018-04-12T05:50:00.028Z,101574.75
2018-04-12T05:52:28.371Z,101569.11
2018-04-12T05:54:56.743Z,101560.16
2018-04-12T05:57:25.103Z,101563.46
2018-04-12T05:59:54.232Z,101567.70
2018-04-12T06:02:24.028Z,101559.31
2018-04-12T06:04:53.219Z,101558.84
2018-04-12T06:07:21.933Z,101560.41
2018-04-12T06:09:50.372Z,101563.98
2018-04-12T06:12:19.180Z,101561.73
2018-04-12T06:14:48.167Z,101564.22
2018-04-12T06:17:16.617Z,101557.38
2018-04-12T06:19:45.021Z,101570.09
2018-04-12T06:22:13.827Z,101566.34
2018-04-12T06:24:42.340Z,101566.29
2018-04-12T06:27:11.672Z,101571.96
2018-04-12T06:29:40.093Z,101566.20
2018-04-12T06:32:08.440Z,101556.88
2018-04-12T06:34:36.886Z,101565.37
2018-04-12T06:37:06.063Z,101564.52
2018-04-12T06:39:34.848Z,101569.14
2018-04-12T06:42:03.644Z,101572.78
2018-04-12T06:44:32.570Z,101571.33
2018-04-12T06:47:00.928Z,101575.46
2018-04-12T06:49:29.279Z,101571.90
2018-04-12T06:51:58.569Z,101565.44
2018-04-12T06:54:26.971Z,101571.08
2018-04-12T06:56:56.408Z,101575.08
2018-04-12T06:59:26.019Z,101573.23
2018-04-12T07:01:54.676Z,101572.70
2018-04-12T07:04:23.027Z,101573.41
2018-04-12T07:06:51.386Z,101567.41
2018-04-12T07:09:19.885Z,101565.94
2018-04-12T07:11:48.311Z,101567.44
2018-04-12T07:14:16.688Z,101583.38
2018-04-12T07:16:45.137Z,101583.32
2018-04-12T07:19:14.297Z,101577.28
2018-04-12T07:21:43.562Z,101574.72
2018-04-12T07:24:11.978Z,101571.43
2018-04-12T07:26:40.846Z,101565.64
2018-04-12T07:29:10.407Z,101572.15
2018-04-12T07:31:38.760Z,101572.42
2018-04-12T07:34:07.115Z,101575.27
2018-04-12T07:36:35.535Z,101575.14
2018-04-12T07:39:04.903Z,101577.60
2018-04-12T07:41:33.274Z,101570.39
2018-04-12T07:44:01.659Z,101575.23
2018-04-12T07:46:30.181Z,101570.69
2018-04-12T07:48:59.555Z,101580.73
2018-04-12T07:51:28.452Z,101578.36
2018-04-12T07:53:56.913Z,101572.36
2018-04-12T07:56:25.324Z,101558.87
2018-04-12T07:58:53.888Z,101564.78
2018-04-12T08:01:22.316Z,101565.80
2018-04-12T08:03:50.669Z,101565.96
2018-04-12T08:06:19.015Z,101565.08
2018-04-12T08:08:47.375Z,101574.48
2018-04-12T08:11:15.977Z,101562.90
2018-04-12T08:13:44.279Z,101567.55
2018-04-12T08:16:12.643Z,101576.42
2018-04-12T08:18:41.218Z,101567.00
2018-04-12T08:21:09.983Z,101564.11
2018-04-12T08:23:38.391Z,101567.87
2018-04-12T08:26:06.758Z,101570.70
2018-04-12T08:28:35.456Z,101571.24
2018-04-12T08:31:03.897Z,101572.19
2018-04-12T08:33:32.265Z,101576.28
2018-04-12T08:36:00.639Z,101571.41
2018-04-12T08:38:29.062Z,101569.40
2018-04-12T08:40:57.672Z,101580.19
2018-04-12T08:43:26.049Z,101583.34
2018-04-12T08:45:55.096Z,101588.14
2018-04-12T08:48:23.625Z,101582.02
2018-04-12T08:50:52.355Z,101582.20
2018-04-12T08:53:20.716Z,101572.16
2018-04-12T08:55:49.723Z,101575.19
2018-04-12T08:58:18.096Z,101581.30
2018-04-12T09:00:46.523Z,101572.17
2018-04-12T09:03:15.140Z,101572.47
2018-04-12T09:05:44.112Z,101582.01
2018-04-12T09:08:12.516Z,101569.52
2018-04-12T09:10:41.451Z,101573.70
2018-04-12T09:13:09.800Z,101573.48
2018-04-12T09:15:38.477Z,101574.30
2018-04-12T09:18:06.873Z,101578.12
2018-04-12T09:20:35.269Z,101571.28
2018-04-12T09:23:03.929Z,101575.33
2018-04-12T09:25:33.430Z,101572.85
2018-04-12T09:28:02.312Z,101569.33
2018-04-12T09:30:31.217Z,101564.86
2018-04-12T09:32:59.924Z,101575.14
2018-04-12T09:35:30.616Z,101577.47
2018-04-12T09:37:59.124Z,101572.83
2018-04-12T09:40:27.544Z,101578.81
2018-04-12T09:42:55.901Z,101570.21
2018-04-12T09:45:24.277Z,101573.82
2018-04-12T09:47:52.910Z,101581.44
2018-04-12T09:50:21.553Z,101579.23
2018-04-12T09:52:50.596Z,101580.70
2018-04-12T09:55:19.224Z,101581.49
2018-04-12T09:57:47.988Z,101583.24
2018-04-12T10:00:16.392Z,101576.17
2018-04-12T10:02:50.506Z,101582.78
2018-04-12T10:05:24.635Z,101580.38
2018-04-12T10:07:53.236Z,101578.34
2018-04-12T10:10:21.942Z,101567.14
2018-04-12T10:12:50.383Z,101571.91
2018-04-12T10:15:18.732Z,101576.13
2018-04-12T10:17:47.139Z,101576.69
2018-04-12T10:20:15.817Z,101575.22
2018-04-12T10:22:44.511Z,101570.83
2018-04-12T10:25:13.011Z,101569.85
2018-04-12T10:27:41.788Z,101565.34
2018-04-12T10:30:10.141Z,101565.82
2018-04-12T10:32:38.659Z,101567.52
2018-04-12T10:35:07.579Z,101567.02
2018-04-12T10:37:36.064Z,101553.25
2018-04-12T10:40:04.420Z,101561.22
2018-04-12T10:42:32.961Z,101553.94
2018-04-12T10:45:01.581Z,101550.22
2018-04-12T10:47:30.168Z,101543.55
2018-04-12T10:49:59.438Z,101540.97
2018-04-12T10:52:27.799Z,101540.17
2018-04-12T10:54:56.153Z,101545.93
2018-04-12T10:57:25.399Z,101539.92
2018-04-12T10:59:54.070Z,101541.48
2018-04-12T11:02:22.583Z,101552.09
2018-04-12T11:04:51.407Z,101543.55
2018-04-12T11:07:20.433Z,101543.68
2018-04-12T11:09:49.362Z,101535.78
2018-04-12T11:12:19.308Z,101541.31
2018-04-12T11:14:47.881Z,101545.52
2018-04-12T11:17:16.369Z,101537.94
2018-04-12T11:19:45.582Z,101541.22
2018-04-12T11:22:14.965Z,101549.89
2018-04-12T11:24:43.816Z,101544.23
2018-04-12T11:27:12.697Z,101544.14
2018-04-12T11:29:41.060Z,101546.59
2018-04-12T11:32:09.730Z,101538.25
2018-04-12T11:34:38.199Z,101540.88
2018-04-12T11:37:06.656Z,101545.76
2018-04-12T11:39:35.635Z,101545.17
2018-04-12T11:42:04.064Z,101538.45
2018-04-12T11:44:35.031Z,101542.24
2018-04-12T11:47:04.566Z,101543.28
2018-04-12T11:49:33.903Z,101544.19
2018-04-12T11:52:02.390Z,101543.77
2018-04-12T11:54:32.317Z,101547.41
2018-04-12T11:57:00.836Z,101542.88
2018-04-12T11:59:30.025Z,101540.54
2018-04-12T12:01:58.487Z,101540.31
2018-04-12T12:04:26.849Z,101536.25
2018-04-12T12:06:55.259Z,101534.75
2018-04-12T12:09:23.585Z,101535.83
2018-04-12T12:11:51.964Z,101527.38
2018-04-12T12:14:20.383Z,101525.16
2018-04-12T12:16:48.757Z,101518.00
2018-04-12T12:19:17.477Z,101513.05
2018-04-12T12:21:45.830Z,101513.28
2018-04-12T12:24:14.516Z,101513.77
2018-04-12T12:26:43.196Z,101510.23
2018-04-12T12:29:11.913Z,101512.20
2018-04-12T12:31:40.329Z,101507.63
2018-04-12T12:34:09.072Z,101511.13
2018-04-12T12:36:37.480Z,101506.23
2018-04-12T12:39:06.329Z,101505.70
2018-04-12T12:41:34.720Z,101506.41
2018-04-12T12:44:03.456Z,101501.99
2018-04-12T12:46:31.983Z,101504.53
2018-04-12T12:49:00.943Z,101498.27
2018-04-12T12:51:29.636Z,101508.96
2018-04-12T12:53:58.186Z,101507.77
2018-04-12T12:56:26.906Z,101505.08
2018-04-12T12:58:55.738Z,101497.50
2018-04-12T13:01:24.310Z,101502.06
2018-04-12T13:03:53.091Z,101499.75
2018-04-12T13:06:21.702Z,101491.56
2018-04-12T13:08:50.330Z,101484.95
2018-04-12T13:11:20.747Z,101486.89
2018-04-12T13:13:49.159Z,101475.44
2018-04-12T13:16:17.538Z,101478.79
2018-04-12T13:18:45.888Z,101480.53
2018-04-12T13:21:14.265Z,101486.84
2018-04-12T13:23:43.089Z,101481.02
2018-04-12T13:26:12.951Z,101482.03
2018-04-12T13:28:41.877Z,101481.55
2018-04-12T13:31:10.396Z,101476.75
2018-04-12T13:33:39.126Z,101479.48
2018-04-12T13:36:07.489Z,101467.06
2018-04-12T13:38:42.214Z,101471.63
2018-04-12T13:41:12.692Z,101473.58
2018-04-12T13:43:42.867Z,101468.53
2018-04-12T13:46:12.392Z,101465.98
2018-04-12T13:48:41.282Z,101464.77
2018-04-12T13:51:09.648Z,101464.92
2018-04-12T13:53:38.606Z,101465.56
2018-04-12T13:56:07.073Z,101457.47
2018-04-12T13:58:35.452Z,101464.97
2018-04-12T14:01:03.811Z,101464.81
2018-04-12T14:03:32.169Z,101466.05
2018-04-12T14:06:00.822Z,101465.81
2018-04-12T14:08:29.192Z,101463.69
2018-04-12T14:10:58.358Z,101463.80
2018-04-12T14:13:26.971Z,101456.24
2018-04-12T14:15:55.391Z,101456.05
2018-04-12T14:18:25.134Z,101457.71
2018-04-12T14:20:54.287Z,101450.70
2018-04-12T14:23:22.977Z,101447.17
2018-04-12T14:25:52.242Z,101442.44
2018-04-12T14:28:20.749Z,101451.23
2018-04-12T14:30:49.224Z,101438.59
2018-04-12T14:33:18.621Z,101440.41
2018-04-12T14:35:48.861Z,101441.81
2018-04-12T14:38:17.568Z,101452.84
2018-04-12T14:40:46.484Z,101443.52
2018-04-12T14:43:14.885Z,101438.88
2018-04-12T14:45:43.605Z,101434.30
2018-04-12T14:48:12.330Z,101433.28
2018-04-12T14:50:41.697Z,101434.09
2018-04-12T14:53:10.084Z,101435.94
2018-04-12T14:55:38.771Z,101427.02
2018-04-12T14:58:07.181Z,101424.09
2018-04-12T15:00:35.788Z,101427.09
2018-04-12T15:03:04.728Z,101418.39
2018-04-12T15:05:33.749Z,101409.92
2018-04-12T15:08:02.557Z,101415.75
2018-04-12T15:10:31.505Z,101426.71
2018-04-12T15:13:00.605Z,101414.21
2018-04-12T15:15:29.593Z,101411.70
2018-04-12T15:17:57.999Z,101408.75
2018-04-12T15:20:26.951Z,101402.27
2018-04-12T15:22:55.373Z,101405.25
2018-04-12T15:25:24.781Z,101406.17
2018-04-12T15:27:53.685Z,101408.98
2018-04-12T15:30:22.913Z,101402.31
2018-04-12T15:32:51.377Z,101402.53
2018-04-12T15:35:20.736Z,101397.34
2018-04-12T15:37:49.111Z,101391.91
2018-04-12T15:40:17.517Z,101390.97
2018-04-12T15:42:45.948Z,101390.38
2018-04-12T15:45:15.544Z,101391.05
2018-04-12T15:47:43.999Z,101381.92
2018-04-12T15:50:12.452Z,101385.73
2018-04-12T15:52:40.881Z,101376.03
2018-04-12T15:55:09.373Z,101377.98
2018-04-12T15:57:37.736Z,101374.31
2018-04-12T16:00:06.434Z,101371.81
2018-04-12T16:02:34.864Z,101373.73
2018-04-12T16:05:04.023Z,101378.64
2018-04-12T16:07:32.503Z,101382.25
2018-04-12T16:10:01.679Z,101386.05
2018-04-12T16:12:31.773Z,101380.29
2018-04-12T16:15:00.464Z,101379.45
2018-04-12T16:17:28.844Z,101374.23
2018-04-12T16:19:57.616Z,101380.55
2018-04-12T16:22:26.003Z,101376.41
2018-04-12T16:24:55.124Z,101382.27
2018-04-12T16:27:25.018Z,101375.24
2018-04-12T16:29:54.266Z,101385.22
2018-04-12T16:32:22.949Z,101386.44
2018-04-12T16:34:53.059Z,101384.16
2018-04-12T16:37:21.512Z,101384.23
2018-04-12T16:39:50.248Z,101384.14
2018-04-12T16:42:18.882Z,101385.03
2018-04-12T16:44:47.305Z,101394.25
2018-04-12T16:47:15.919Z,101391.09
2018-04-12T16:49:44.659Z,101386.41
2018-04-12T16:52:13.180Z,101393.41
2018-04-12T16:54:41.912Z,101397.84
2018-04-12T16:57:11.143Z,101391.16
2018-04-12T16:59:40.005Z,101392.12
2018-04-12T17:02:08.407Z,101396.72
2018-04-12T17:04:37.068Z,101403.88
2018-04-12T17:07:09.181Z,101405.59
2018-04-12T17:09:38.731Z,101402.47
2018-04-12T17:12:07.219Z,101398.94
2018-04-12T17:14:35.871Z,101407.11
2018-04-12T17:17:16.338Z,101412.52
2018-04-12T17:19:45.833Z,101411.80
2018-04-12T17:22:14.649Z,101413.48
2018-04-12T17:24:43.038Z,101408.80
2018-04-12T17:27:11.692Z,101399.81
2018-04-12T17:29:40.377Z,101399.83
2018-04-12T17:32:08.786Z,101400.58
2018-04-12T17:34:37.182Z,101405.41
2018-04-12T17:37:06.510Z,101416.13
2018-04-12T17:39:34.945Z,101419.98
2018-04-12T17:42:03.610Z,101421.50
2018-04-12T17:44:32.100Z,101434.24
2018-04-12T17:47:00.780Z,101433.17
2018-04-12T17:49:29.144Z,101439.74
2018-04-12T17:51:57.875Z,101441.61
2018-04-12T17:54:27.341Z,101437.19
2018-04-12T17:56:56.357Z,101445.47
2018-04-12T17:59:25.056Z,101466.07
2018-04-12T18:01:53.956Z,101461.59
2018-04-12T18:04:24.253Z,101470.18
2018-04-12T18:06:52.751Z,101467.78
2018-04-12T18:09:21.134Z,101480.22
2018-04-12T18:11:50.380Z,101482.84
2018-04-12T18:14:20.204Z,101488.38
2018-04-12T18:16:49.768Z,101482.89
2018-04-12T18:19:18.473Z,101489.77
2018-04-12T18:21:47.137Z,101494.52
2018-04-12T18:24:15.536Z,101497.05
2018-04-12T18:26:44.690Z,101501.69
2018-04-12T18:29:14.583Z,101503.38
2018-04-12T18:31:44.976Z,101509.58
2018-04-12T18:34:13.512Z,101512.44
2018-04-12T18:36:42.005Z,101522.64
2018-04-12T18:39:10.444Z,101519.17
2018-04-12T18:41:40.986Z,101518.17
2018-04-12T18:44:10.288Z,101520.00
2018-04-12T18:46:39.210Z,101520.10
2018-04-12T18:49:08.147Z,101515.11
2018-04-12T18:51:36.840Z,101529.89
2018-04-12T18:54:06.809Z,101516.30
2018-04-12T18:56:36.796Z,101524.38
2018-04-12T18:59:05.399Z,101526.22
2018-04-12T19:01:33.780Z,101525.80
2018-04-12T19:04:02.250Z,101532.63
2018-04-12T19:06:31.004Z,101527.63
2018-04-12T19:08:59.377Z,101531.45
2018-04-12T19:11:28.045Z,101520.83
2018-04-12T19:13:58.234Z,101526.47
2018-04-12T19:16:27.021Z,101520.09
2018-04-12T19:18:55.434Z,101515.30
2018-04-12T19:21:26.652Z,101513.30
2018-04-12T19:23:55.321Z,101517.91
2018-04-12T19:26:24.305Z,101513.89
2018-04-12T19:28:52.719Z,101512.03
2018-04-12T19:31:22.424Z,101516.07
2018-04-12T19:33:51.748Z,101513.08
2018-04-12T19:36:20.452Z,101514.09
2018-04-12T19:38:48.875Z,101514.53
2018-04-12T19:41:17.950Z,101517.57
2018-04-12T19:43:46.836Z,101514.75
2018-04-12T19:48:51.844Z,101512.22
2018-04-12T19:51:20.331Z,101512.32
2018-04-12T19:53:49.079Z,101508.13
2018-04-12T19:56:18.772Z,101506.00
2018-04-12T19:58:48.301Z,101501.42
2018-04-12T20:01:17.372Z,101507.41
2018-04-12T20:03:46.644Z,101499.06
2018-04-12T20:06:15.399Z,101503.91
2018-04-12T20:08:44.602Z,101502.76
2018-04-12T20:11:13.198Z,101506.60
2018-04-12T20:13:43.532Z,101504.05
2018-04-12T20:16:15.547Z,101501.21
2018-04-12T20:18:45.301Z,101500.52
2018-04-12T20:21:15.519Z,101496.52
2018-04-12T20:23:44.198Z,101500.04
2018-04-12T20:26:16.001Z,101492.03
2018-04-12T20:28:44.770Z,101493.42
2018-04-12T20:31:13.841Z,101493.44
2018-04-12T20:33:42.553Z,101497.75
2018-04-12T20:36:11.553Z,101499.05
2018-04-12T20:38:40.495Z,101497.38
2018-04-12T20:41:09.943Z,101496.09
2018-04-12T20:43:39.149Z,101494.97
2018-04-12T20:46:08.567Z,101492.54
2018-04-12T20:48:37.649Z,101490.55
2018-04-12T20:51:06.394Z,101487.36
2018-04-12T20:53:34.966Z,101492.60
2018-04-12T20:56:03.918Z,101496.12
2018-04-12T20:58:33.350Z,101490.28
2018-04-12T21:01:02.386Z,101492.98
2018-04-12T21:03:31.913Z,101498.19
2018-04-12T21:06:01.353Z,101485.48
2018-04-12T21:08:30.378Z,101490.66
2018-04-12T21:10:58.903Z,101492.41
2018-04-12T21:13:27.628Z,101495.86
2018-04-12T21:15:56.464Z,101497.66
2018-04-12T21:18:25.134Z,101500.69
2018-04-12T21:20:54.053Z,101501.73
2018-04-12T21:23:23.200Z,101499.80
2018-04-12T21:25:55.233Z,101500.34
2018-04-12T21:28:23.599Z,101510.67
2018-04-12T21:30:52.240Z,101507.46
2018-04-12T21:33:21.507Z,101511.83
2018-04-12T21:35:51.588Z,101511.91
2018-04-12T21:38:19.956Z,101513.11
2018-04-12T21:40:48.617Z,101512.67
2018-04-12T21:43:18.301Z,101514.30
2018-04-12T21:45:46.774Z,101514.76
2018-04-12T21:48:15.434Z,101518.59
2018-04-12T21:50:43.990Z,101515.28
2018-04-12T21:53:12.557Z,101513.62
2018-04-12T21:55:41.463Z,101518.67
2018-04-12T21:58:10.400Z,101521.13
2018-04-12T22:08:20.338Z,101525.50
2018-04-12T22:13:23.054Z,101521.36
2018-04-12T22:15:53.124Z,101525.22
2018-04-12T22:20:56.348Z,101522.81
2018-04-12T22:23:25.005Z,101523.28
2018-04-12T22:25:53.673Z,101518.80
2018-04-12T22:28:22.284Z,101520.16
2018-04-12T22:30:50.687Z,101515.98
2018-04-12T22:33:20.079Z,101512.26
2018-04-12T22:35:48.939Z,101505.95
2018-04-12T22:38:18.120Z,101509.41
2018-04-12T22:40:46.895Z,101506.65
2018-04-12T22:43:15.765Z,101513.59
2018-04-12T22:45:44.727Z,101506.17
2018-04-12T22:48:18.313Z,101503.00
2018-04-12T22:50:46.992Z,101499.80
2018-04-12T22:53:16.374Z,101500.48
2018-04-12T22:55:44.825Z,101502.77
2018-04-12T22:58:16.140Z,101504.99
2018-04-12T23:00:44.993Z,101494.42
2018-04-12T23:03:13.487Z,101494.53
2018-04-12T23:05:43.180Z,101492.03
2018-04-12T23:08:12.681Z,101490.34
2018-04-12T23:10:41.312Z,101495.00
2018-04-12T23:13:10.129Z,101491.59
2018-04-12T23:15:40.905Z,101493.80
2018-04-12T23:18:10.490Z,101494.62
2018-04-12T23:20:39.304Z,101491.59
2018-04-12T23:25:42.752Z,101488.41
2018-04-12T23:28:12.112Z,101482.47
2018-04-12T23:30:42.234Z,101480.78
2018-04-12T23:35:43.713Z,101475.83
2018-04-12T23:38:18.955Z,101478.04
2018-04-12T23:40:49.495Z,101476.43
2018-04-12T23:43:19.813Z,101477.02
2018-04-12T23:45:48.397Z,101481.02
2018-04-12T23:48:18.228Z,101484.09
2018-04-12T23:50:46.592Z,101487.44
2018-04-12T23:53:15.834Z,101482.89
2018-04-12T23:55:44.195Z,101477.38
2018-04-12T23:58:13.793Z,101484.91
